Weather at Gosling Lake Water Aerodrome [CLOSED]

Public forecast

Using degrees Celsius for public forecast. Weather courtesy of forecast.io.

Closest aviation weather report (METAR) to Gosling Lake Water Aerodrome

Report is more than 6 hours old.

Closest report is Goose Bay Airport, 6.3 nm (11.8 km) SSW.

2022/11/14 15:00 (retrieved 2 years ago)

CYYR 141500Z 31005KT 12SM -SHSN FEW004 BKN009 BKN012 BKN070 M10/M12 A2995 RMK SF1SF5SF1AC1 VIS HYR N SLP147

Closest aviation forecast (TAF) to Gosling Lake Water Aerodrome

Forecast is more than 12 hours old.

Closest forecast is Goose Bay Airport, 6.3 nm (11.8 km) SSW.

2023/02/22 18:42 (retrieved 1 year ago)

TAF CYYR 221740Z 2218/2318 VRB03KT P6SM -SHSN SCT015 OVC030 TEMPO 2218/2221 5SM -SN BKN015 OVC030 FM222100 VRB03KT 6SM -SN SCT015 OVC025 TEMPO 2221/2302 2SM -SN BKN015 OVC025 BECMG 2223/2301 27010KT FM230200 29015G28KT P6SM SCT020 BKN030 TEMPO 2302/2306 4SM BLSN OVC020 FM230600 29015G30KT P6SM SCT020 RMK NXT FCST BY 230000Z